createdAt,value
2023-01-10T00:00:29.217Z,1003.18
2023-01-10T00:01:29.097Z,1003.22
2023-01-10T00:02:29.159Z,1003.23
2023-01-10T00:03:29.109Z,1003.24
2023-01-10T00:04:29.071Z,1003.22
2023-01-10T00:05:29.065Z,1003.23
2023-01-10T00:06:29.063Z,1003.25
2023-01-10T00:07:29.007Z,1003.28
2023-01-10T00:08:29.073Z,1003.30
2023-01-10T00:09:28.999Z,1003.33
2023-01-10T00:10:28.986Z,1003.38
2023-01-10T00:11:29.014Z,1003.41
2023-01-10T00:12:28.963Z,1003.42
2023-01-10T00:13:28.957Z,1003.45
2023-01-10T00:14:29.138Z,1003.44
2023-01-10T00:15:28.946Z,1003.43
2023-01-10T00:16:28.961Z,1003.43
2023-01-10T00:17:28.911Z,1003.44
2023-01-10T00:18:28.960Z,1003.44
2023-01-10T00:19:28.891Z,1003.46
2023-01-10T00:20:28.917Z,1003.45
2023-01-10T00:21:28.898Z,1003.45
2023-01-10T00:22:28.927Z,1003.45
2023-01-10T00:23:28.861Z,1003.45
2023-01-10T00:24:28.853Z,1003.45
2023-01-10T00:25:28.869Z,1003.47
2023-01-10T00:26:28.870Z,1003.48
2023-01-10T00:27:28.813Z,1003.47
2023-01-10T00:28:28.822Z,1003.50
2023-01-10T00:29:28.853Z,1003.54
2023-01-10T00:30:29.074Z,1003.57
2023-01-10T00:31:28.901Z,1003.58
2023-01-10T00:32:28.765Z,1003.61
2023-01-10T00:33:28.798Z,1003.66
2023-01-10T00:34:28.772Z,1003.72
2023-01-10T00:35:28.837Z,1003.76
2023-01-10T00:36:28.763Z,1003.79
2023-01-10T00:37:28.721Z,1003.83
2023-01-10T00:38:28.715Z,1003.87
2023-01-10T00:39:28.716Z,1003.88
2023-01-10T00:40:28.720Z,1003.89
2023-01-10T00:41:28.704Z,1003.88
2023-01-10T00:42:28.660Z,1003.90
2023-01-10T00:43:28.659Z,1003.91
2023-01-10T00:44:28.657Z,1003.93
2023-01-10T00:45:28.667Z,1003.96
2023-01-10T00:46:28.729Z,1003.97
2023-01-10T00:47:28.665Z,1004.00
2023-01-10T00:48:28.604Z,1004.02
2023-01-10T00:49:28.645Z,1004.02
2023-01-10T00:50:28.579Z,1004.05
2023-01-10T00:51:28.640Z,1004.07
2023-01-10T00:52:28.567Z,1004.13
2023-01-10T00:53:30.392Z,1004.16
2023-01-10T00:54:28.556Z,1004.19
2023-01-10T00:55:28.814Z,1004.23
2023-01-10T00:56:28.544Z,1004.26
2023-01-10T00:57:28.546Z,1004.31
2023-01-10T00:58:28.520Z,1004.34
2023-01-10T00:59:28.784Z,1004.37
2023-01-10T01:00:28.534Z,1004.38
2023-01-10T01:01:28.840Z,1004.40
2023-01-10T01:02:28.595Z,1004.45
2023-01-10T01:03:28.521Z,1004.48
2023-01-10T01:04:28.462Z,1004.50
2023-01-10T01:05:28.531Z,1004.53
2023-01-10T01:06:28.456Z,1004.60
2023-01-10T01:07:28.490Z,1004.64
2023-01-10T01:08:28.405Z,1004.67
2023-01-10T01:09:28.423Z,1004.72
2023-01-10T01:10:28.440Z,1004.76
2023-01-10T01:11:28.492Z,1004.79
2023-01-10T01:12:29.240Z,1004.84
2023-01-10T01:13:28.358Z,1004.89
2023-01-10T01:14:28.620Z,1004.94
2023-01-10T01:15:28.386Z,1004.95
2023-01-10T01:16:28.322Z,1004.99
2023-01-10T01:17:28.344Z,1005.02
2023-01-10T01:18:28.366Z,1005.05
2023-01-10T01:19:28.352Z,1005.09
2023-01-10T01:20:28.391Z,1005.10
2023-01-10T01:21:28.332Z,1005.12
2023-01-10T01:22:28.404Z,1005.14
2023-01-10T01:23:28.285Z,1005.18
2023-01-10T01:24:29.237Z,1005.20
2023-01-10T01:25:28.279Z,1005.23
2023-01-10T01:26:28.235Z,1005.26
2023-01-10T01:27:28.251Z,1005.30
2023-01-10T01:28:28.239Z,1005.30
2023-01-10T01:29:42.393Z,1005.33
2023-01-10T01:30:28.225Z,1005.35
2023-01-10T01:31:29.050Z,1005.33
2023-01-10T01:32:28.209Z,1005.36
2023-01-10T01:33:28.185Z,1005.37
2023-01-10T01:34:28.172Z,1005.41
2023-01-10T01:35:28.174Z,1005.43
2023-01-10T01:36:28.410Z,1005.47
2023-01-10T01:37:28.450Z,1005.49
2023-01-10T01:38:28.216Z,1005.54
2023-01-10T01:39:29.435Z,1005.57
2023-01-10T01:40:28.160Z,1005.57
2023-01-10T01:41:28.148Z,1005.60
2023-01-10T01:42:28.088Z,1005.61
2023-01-10T01:43:28.537Z,1005.65
2023-01-10T01:44:28.054Z,1005.69
2023-01-10T01:45:28.067Z,1005.73
2023-01-10T01:46:28.160Z,1005.75
2023-01-10T01:47:28.069Z,1005.79
2023-01-10T01:48:28.026Z,1005.82
2023-01-10T01:49:28.039Z,1005.85
2023-01-10T01:50:28.000Z,1005.89
2023-01-10T01:51:27.987Z,1005.87
2023-01-10T01:52:27.998Z,1005.88
2023-01-10T01:53:27.975Z,1005.92
2023-01-10T01:54:27.990Z,1005.94
2023-01-10T01:55:27.955Z,1005.95
2023-01-10T01:56:27.974Z,1005.96
2023-01-10T01:57:27.957Z,1005.96
2023-01-10T01:58:27.975Z,1005.99
2023-01-10T01:59:27.932Z,1005.99
2023-01-10T02:00:27.917Z,1005.99
2023-01-10T02:01:28.058Z,1005.97
2023-01-10T02:02:27.935Z,1005.99
2023-01-10T02:03:27.943Z,1006.03
2023-01-10T02:04:27.885Z,1006.05
2023-01-10T02:05:27.846Z,1006.04
2023-01-10T02:06:27.829Z,1006.06
2023-01-10T02:07:27.814Z,1006.07
2023-01-10T02:08:27.823Z,1006.07
2023-01-10T02:09:28.644Z,1006.10
2023-01-10T02:10:27.814Z,1006.09
2023-01-10T02:11:27.816Z,1006.04
2023-01-10T02:12:28.057Z,1006.04
2023-01-10T02:13:27.804Z,1006.03
2023-01-10T02:14:27.753Z,1006.04
2023-01-10T02:15:27.815Z,1006.01
2023-01-10T02:16:27.724Z,1006.03
2023-01-10T02:17:27.791Z,1006.03
2023-01-10T02:18:27.733Z,1006.04
2023-01-10T02:19:27.727Z,1006.06
2023-01-10T02:20:27.752Z,1006.06
2023-01-10T02:21:27.701Z,1006.06
2023-01-10T02:22:27.669Z,1006.07
2023-01-10T02:23:27.684Z,1006.05
2023-01-10T02:24:27.864Z,1006.07
2023-01-10T02:25:27.724Z,1006.07
2023-01-10T02:26:27.603Z,1006.07
2023-01-10T02:27:27.626Z,1006.07
2023-01-10T02:28:27.585Z,1006.06
2023-01-10T02:29:27.634Z,1006.09
2023-01-10T02:30:27.560Z,1006.09
2023-01-10T02:31:27.650Z,1006.12
2023-01-10T02:32:43.462Z,1006.13
2023-01-10T02:33:27.565Z,1006.11
2023-01-10T02:34:27.555Z,1006.11
2023-01-10T02:35:27.536Z,1006.15
2023-01-10T02:36:27.516Z,1006.18
2023-01-10T02:37:27.525Z,1006.19
2023-01-10T02:38:27.534Z,1006.21
2023-01-10T02:39:27.498Z,1006.25
2023-01-10T02:40:27.466Z,1006.26
2023-01-10T02:41:27.475Z,1006.27
2023-01-10T02:42:27.474Z,1006.26
2023-01-10T02:43:27.477Z,1006.25
2023-01-10T02:44:27.475Z,1006.25
2023-01-10T02:45:27.520Z,1006.26
2023-01-10T02:46:27.647Z,1006.26
2023-01-10T02:47:27.410Z,1006.28
2023-01-10T02:48:27.414Z,1006.31
2023-01-10T02:49:27.372Z,1006.31
2023-01-10T02:50:27.405Z,1006.32
2023-01-10T02:51:27.403Z,1006.35
2023-01-10T02:52:27.356Z,1006.35
2023-01-10T02:53:27.351Z,1006.36
2023-01-10T02:54:27.393Z,1006.36
2023-01-10T02:55:27.331Z,1006.38
2023-01-10T02:56:27.318Z,1006.39
2023-01-10T02:57:27.313Z,1006.40
2023-01-10T02:58:27.294Z,1006.41
2023-01-10T02:59:27.273Z,1006.42
2023-01-10T03:00:27.293Z,1006.43
2023-01-10T03:01:27.413Z,1006.48
2023-01-10T03:02:27.276Z,1006.53
2023-01-10T03:03:27.236Z,1006.56
2023-01-10T03:04:27.362Z,1006.60
2023-01-10T03:05:27.206Z,1006.62
2023-01-10T03:06:27.214Z,1006.64
2023-01-10T03:07:27.227Z,1006.63
2023-01-10T03:08:27.203Z,1006.65
2023-01-10T03:09:27.131Z,1006.67
2023-01-10T03:10:27.184Z,1006.69
2023-01-10T03:11:27.163Z,1006.70
2023-01-10T03:12:27.159Z,1006.69
2023-01-10T03:13:27.150Z,1006.73
2023-01-10T03:14:27.172Z,1006.78
2023-01-10T03:15:27.122Z,1006.82
2023-01-10T03:16:27.140Z,1006.89
2023-01-10T03:17:27.107Z,1006.93
2023-01-10T03:18:27.099Z,1006.95
2023-01-10T03:19:27.068Z,1006.97
2023-01-10T03:20:27.107Z,1006.99
2023-01-10T03:21:27.046Z,1007.00
2023-01-10T03:22:27.046Z,1007.02
2023-01-10T03:23:27.033Z,1007.04
2023-01-10T03:24:27.011Z,1007.02
2023-01-10T03:25:27.030Z,1007.03
2023-01-10T03:26:27.045Z,1007.06
2023-01-10T03:27:27.016Z,1007.08
2023-01-10T03:28:26.985Z,1007.11
2023-01-10T03:29:26.969Z,1007.16
2023-01-10T03:30:26.978Z,1007.21
2023-01-10T03:31:26.976Z,1007.24
2023-01-10T03:32:26.969Z,1007.27
2023-01-10T03:33:26.946Z,1007.29
2023-01-10T03:34:26.915Z,1007.30
2023-01-10T03:35:26.903Z,1007.30
2023-01-10T03:36:26.903Z,1007.32
2023-01-10T03:37:26.929Z,1007.34
2023-01-10T03:38:26.895Z,1007.35
2023-01-10T03:39:26.876Z,1007.38
2023-01-10T03:40:26.888Z,1007.38
2023-01-10T03:41:26.841Z,1007.40
2023-01-10T03:42:26.845Z,1007.44
2023-01-10T03:43:26.853Z,1007.45
2023-01-10T03:44:26.859Z,1007.48
2023-01-10T03:45:26.824Z,1007.49
2023-01-10T03:46:26.861Z,1007.50
2023-01-10T03:47:26.789Z,1007.51
2023-01-10T03:48:26.765Z,1007.54
2023-01-10T03:49:26.764Z,1007.57
2023-01-10T03:50:26.822Z,1007.62
2023-01-10T03:51:26.756Z,1007.67
2023-01-10T03:52:26.746Z,1007.70
2023-01-10T03:53:26.728Z,1007.75
2023-01-10T03:54:26.716Z,1007.77
2023-01-10T03:55:26.732Z,1007.80
2023-01-10T03:56:26.712Z,1007.83
2023-01-10T03:57:26.712Z,1007.85
2023-01-10T03:58:26.681Z,1007.88
2023-01-10T03:59:26.659Z,1007.87
2023-01-10T04:00:26.682Z,1007.88
2023-01-10T04:01:26.720Z,1007.89
2023-01-10T04:02:26.643Z,1007.89
2023-01-10T04:03:26.631Z,1007.92
2023-01-10T04:04:26.664Z,1007.92
2023-01-10T04:05:26.604Z,1007.94
2023-01-10T04:06:26.602Z,1007.97
2023-01-10T04:07:26.592Z,1007.98
2023-01-10T04:08:26.601Z,1008.00
2023-01-10T04:09:26.568Z,1008.02
2023-01-10T04:10:26.574Z,1008.01
2023-01-10T04:11:26.581Z,1008.00
2023-01-10T04:12:26.546Z,1008.03
2023-01-10T04:13:26.550Z,1008.03
2023-01-10T04:14:26.522Z,1008.05
2023-01-10T04:15:26.514Z,1008.09
2023-01-10T04:16:26.575Z,1008.13
2023-01-10T04:17:26.503Z,1008.17
2023-01-10T04:18:26.498Z,1008.18
2023-01-10T04:19:26.468Z,1008.20
2023-01-10T04:20:26.452Z,1008.23
2023-01-10T04:21:26.468Z,1008.24
2023-01-10T04:22:26.437Z,1008.26
2023-01-10T04:23:26.439Z,1008.26
2023-01-10T04:24:26.446Z,1008.27
2023-01-10T04:25:26.417Z,1008.28
2023-01-10T04:26:26.425Z,1008.28
2023-01-10T04:27:26.424Z,1008.28
2023-01-10T04:28:26.377Z,1008.30
2023-01-10T04:29:26.361Z,1008.30
2023-01-10T04:30:26.376Z,1008.29
2023-01-10T04:31:26.381Z,1008.28
2023-01-10T04:32:26.321Z,1008.27
2023-01-10T04:33:26.327Z,1008.28
2023-01-10T04:34:26.320Z,1008.28
2023-01-10T04:35:26.321Z,1008.28
2023-01-10T04:36:26.315Z,1008.27
2023-01-10T04:37:26.284Z,1008.28
2023-01-10T04:38:26.287Z,1008.31
2023-01-10T04:39:26.266Z,1008.33
2023-01-10T04:40:26.244Z,1008.37
2023-01-10T04:41:26.287Z,1008.40
2023-01-10T04:42:26.253Z,1008.43
2023-01-10T04:43:26.224Z,1008.46
2023-01-10T04:44:26.217Z,1008.48
2023-01-10T04:45:26.238Z,1008.51
2023-01-10T04:46:26.204Z,1008.51
2023-01-10T04:47:26.224Z,1008.52
2023-01-10T04:48:26.169Z,1008.56
2023-01-10T04:49:26.209Z,1008.59
2023-01-10T04:50:26.157Z,1008.60
2023-01-10T04:51:26.234Z,1008.63
2023-01-10T04:52:26.165Z,1008.63
2023-01-10T04:53:26.132Z,1008.63
2023-01-10T04:54:26.162Z,1008.63
2023-01-10T04:55:26.094Z,1008.64
2023-01-10T04:56:26.112Z,1008.65
2023-01-10T04:57:26.163Z,1008.62
2023-01-10T04:58:26.070Z,1008.59
2023-01-10T04:59:26.103Z,1008.59
2023-01-10T05:00:26.095Z,1008.61
2023-01-10T05:01:26.203Z,1008.63
2023-01-10T05:02:26.139Z,1008.65
2023-01-10T05:03:26.035Z,1008.65
2023-01-10T05:04:26.026Z,1008.67
2023-01-10T05:05:26.043Z,1008.71
2023-01-10T05:06:25.996Z,1008.74
2023-01-10T05:07:25.978Z,1008.76
2023-01-10T05:08:25.973Z,1008.79
2023-01-10T05:09:25.911Z,1008.81
2023-01-10T05:10:25.985Z,1008.82
2023-01-10T05:11:25.968Z,1008.83
2023-01-10T05:12:25.934Z,1008.82
2023-01-10T05:13:25.932Z,1008.83
2023-01-10T05:14:25.907Z,1008.83
2023-01-10T05:15:25.891Z,1008.83
2023-01-10T05:16:25.984Z,1008.85
2023-01-10T05:17:25.874Z,1008.88
2023-01-10T05:18:25.871Z,1008.89
2023-01-10T05:19:25.858Z,1008.91
2023-01-10T05:20:25.856Z,1008.92
2023-01-10T05:21:25.873Z,1008.92
2023-01-10T05:22:25.834Z,1008.93
2023-01-10T05:23:25.818Z,1008.92
2023-01-10T05:24:25.819Z,1008.93
2023-01-10T05:25:25.764Z,1008.92
2023-01-10T05:26:25.808Z,1008.89
2023-01-10T05:27:25.829Z,1008.90
2023-01-10T05:28:25.789Z,1008.94
2023-01-10T05:29:25.775Z,1008.94
2023-01-10T05:30:25.771Z,1008.95
2023-01-10T05:31:25.836Z,1008.94
2023-01-10T05:32:25.750Z,1008.92
2023-01-10T05:33:25.720Z,1008.91
2023-01-10T05:34:25.715Z,1008.89
2023-01-10T05:35:25.700Z,1008.92
2023-01-10T05:36:25.732Z,1008.92
2023-01-10T05:37:25.675Z,1008.95
2023-01-10T05:38:25.698Z,1008.96
2023-01-10T05:39:25.677Z,1009.00
2023-01-10T05:40:25.686Z,1009.00
2023-01-10T05:41:25.672Z,1009.00
2023-01-10T05:42:25.638Z,1008.99
2023-01-10T05:43:25.656Z,1008.98
2023-01-10T05:44:25.636Z,1009.01
2023-01-10T05:45:25.640Z,1009.01
2023-01-10T05:46:25.605Z,1009.03
2023-01-10T05:47:25.579Z,1009.07
2023-01-10T05:48:25.593Z,1009.09
2023-01-10T05:49:25.640Z,1009.11
2023-01-10T05:50:25.615Z,1009.13
2023-01-10T05:51:25.584Z,1009.11
2023-01-10T05:52:25.534Z,1009.14
2023-01-10T05:53:25.593Z,1009.17
2023-01-10T05:54:25.534Z,1009.20
2023-01-10T05:55:25.498Z,1009.26
2023-01-10T05:56:25.537Z,1009.28
2023-01-10T05:57:25.508Z,1009.30
2023-01-10T05:58:25.504Z,1009.31
2023-01-10T05:59:28.806Z,1009.33
2023-01-10T06:00:25.484Z,1009.34
2023-01-10T06:01:25.519Z,1009.37
2023-01-10T06:02:25.536Z,1009.40
2023-01-10T06:03:25.441Z,1009.41
2023-01-10T06:04:25.420Z,1009.43
2023-01-10T06:05:25.448Z,1009.47
2023-01-10T06:06:25.434Z,1009.52
2023-01-10T06:07:25.389Z,1009.56
2023-01-10T06:08:25.401Z,1009.60
2023-01-10T06:09:25.382Z,1009.66
2023-01-10T06:10:27.077Z,1009.69
2023-01-10T06:11:25.391Z,1009.73
2023-01-10T06:12:25.306Z,1009.75
2023-01-10T06:13:25.362Z,1009.77
2023-01-10T06:14:25.317Z,1009.78
2023-01-10T06:15:25.304Z,1009.80
2023-01-10T06:16:25.317Z,1009.82
2023-01-10T06:17:25.267Z,1009.84
2023-01-10T06:18:25.278Z,1009.86
2023-01-10T06:19:25.276Z,1009.87
2023-01-10T06:20:25.266Z,1009.89
2023-01-10T06:21:25.298Z,1009.88
2023-01-10T06:22:25.269Z,1009.89
2023-01-10T06:23:25.205Z,1009.88
2023-01-10T06:24:25.235Z,1009.90
2023-01-10T06:25:25.199Z,1009.90
2023-01-10T06:26:25.218Z,1009.90
2023-01-10T06:27:25.193Z,1009.91
2023-01-10T06:28:25.217Z,1009.90
2023-01-10T06:29:25.175Z,1009.89
2023-01-10T06:30:25.138Z,1009.91
2023-01-10T06:31:25.165Z,1009.93
2023-01-10T06:32:25.139Z,1009.95
2023-01-10T06:33:25.135Z,1009.98
2023-01-10T06:34:25.244Z,1010.00
2023-01-10T06:35:25.093Z,1010.03
2023-01-10T06:36:25.182Z,1010.07
2023-01-10T06:37:25.132Z,1010.11
2023-01-10T06:38:25.021Z,1010.14
2023-01-10T06:39:25.092Z,1010.19
2023-01-10T06:40:25.078Z,1010.25
2023-01-10T06:41:25.062Z,1010.27
2023-01-10T06:42:25.055Z,1010.30
2023-01-10T06:43:25.982Z,1010.30
2023-01-10T06:44:25.033Z,1010.29
2023-01-10T06:45:25.010Z,1010.28
2023-01-10T06:46:25.002Z,1010.27
2023-01-10T06:47:24.976Z,1010.25
2023-01-10T06:48:24.920Z,1010.24
2023-01-10T06:49:24.913Z,1010.22
2023-01-10T06:50:24.925Z,1010.20
2023-01-10T06:51:24.901Z,1010.18
2023-01-10T06:52:24.909Z,1010.16
2023-01-10T06:53:24.899Z,1010.15
2023-01-10T06:54:24.887Z,1010.13
2023-01-10T06:55:24.875Z,1010.14
2023-01-10T06:56:24.858Z,1010.14
2023-01-10T06:57:24.833Z,1010.14
2023-01-10T06:58:24.846Z,1010.17
2023-01-10T06:59:24.848Z,1010.19
2023-01-10T07:00:24.802Z,1010.24
2023-01-10T07:01:24.915Z,1010.29
2023-01-10T07:02:24.887Z,1010.36
2023-01-10T07:03:24.840Z,1010.43
2023-01-10T07:04:24.800Z,1010.51
2023-01-10T07:05:24.769Z,1010.56
2023-01-10T07:06:24.760Z,1010.58
2023-01-10T07:07:24.745Z,1010.61
2023-01-10T07:08:24.773Z,1010.60
2023-01-10T07:09:24.726Z,1010.61
2023-01-10T07:10:24.699Z,1010.59
2023-01-10T07:11:24.701Z,1010.57
2023-01-10T07:12:24.691Z,1010.58
2023-01-10T07:13:24.761Z,1010.57
2023-01-10T07:14:24.704Z,1010.61
2023-01-10T07:15:24.665Z,1010.64
2023-01-10T07:16:24.683Z,1010.68
2023-01-10T07:17:24.647Z,1010.72
2023-01-10T07:18:24.671Z,1010.77
2023-01-10T07:19:24.648Z,1010.79
2023-01-10T07:20:24.633Z,1010.80
2023-01-10T07:21:24.598Z,1010.81
2023-01-10T07:22:24.605Z,1010.80
2023-01-10T07:23:24.584Z,1010.80
2023-01-10T07:24:24.598Z,1010.79
2023-01-10T07:25:24.555Z,1010.78
2023-01-10T07:26:24.577Z,1010.76
2023-01-10T07:27:24.556Z,1010.78
2023-01-10T07:28:24.560Z,1010.79
2023-01-10T07:29:24.503Z,1010.80
2023-01-10T07:30:29.484Z,1010.81
2023-01-10T07:31:24.720Z,1010.80
2023-01-10T07:32:24.588Z,1010.82
2023-01-10T07:33:25.225Z,1010.83
2023-01-10T07:34:25.955Z,1010.87
2023-01-10T07:35:24.901Z,1010.92
2023-01-10T07:36:25.626Z,1010.99
2023-01-10T07:37:24.440Z,1011.02
2023-01-10T07:38:25.347Z,1011.05
2023-01-10T07:39:26.986Z,1011.06
2023-01-10T07:40:24.422Z,1011.08
2023-01-10T07:41:24.393Z,1011.10
2023-01-10T07:42:24.383Z,1011.13
2023-01-10T07:43:24.367Z,1011.15
2023-01-10T07:44:24.441Z,1011.18
2023-01-10T07:45:24.346Z,1011.20
2023-01-10T07:46:24.428Z,1011.23
2023-01-10T07:47:24.359Z,1011.24
2023-01-10T07:48:24.330Z,1011.28
2023-01-10T07:49:24.337Z,1011.28
2023-01-10T07:50:24.410Z,1011.33
2023-01-10T07:51:24.300Z,1011.36
2023-01-10T07:52:24.302Z,1011.38
2023-01-10T07:53:24.268Z,1011.39
2023-01-10T07:54:24.312Z,1011.40
2023-01-10T07:55:24.246Z,1011.42
2023-01-10T07:56:24.263Z,1011.46
2023-01-10T07:57:24.268Z,1011.47
2023-01-10T07:58:24.271Z,1011.48
2023-01-10T07:59:24.217Z,1011.46
2023-01-10T08:00:24.194Z,1011.42
2023-01-10T08:01:24.231Z,1011.40
2023-01-10T08:02:24.393Z,1011.39
2023-01-10T08:03:24.305Z,1011.40
2023-01-10T08:04:24.216Z,1011.43
2023-01-10T08:05:24.157Z,1011.46
2023-01-10T08:06:24.176Z,1011.45
2023-01-10T08:07:24.204Z,1011.47
2023-01-10T08:08:24.145Z,1011.49
2023-01-10T08:09:24.120Z,1011.53
2023-01-10T08:10:24.188Z,1011.58
2023-01-10T08:11:24.098Z,1011.61
2023-01-10T08:12:24.084Z,1011.60
2023-01-10T08:13:24.907Z,1011.59
2023-01-10T08:14:24.134Z,1011.61
2023-01-10T08:15:24.073Z,1011.62
2023-01-10T08:16:24.084Z,1011.62
2023-01-10T08:17:24.112Z,1011.61
2023-01-10T08:18:24.036Z,1011.59
2023-01-10T08:19:24.058Z,1011.56
2023-01-10T08:20:24.108Z,1011.55
2023-01-10T08:21:23.998Z,1011.51
2023-01-10T08:22:24.018Z,1011.49
2023-01-10T08:23:24.233Z,1011.47
2023-01-10T08:24:24.083Z,1011.49
2023-01-10T08:25:23.957Z,1011.49
2023-01-10T08:26:23.940Z,1011.49
2023-01-10T08:27:24.072Z,1011.50
2023-01-10T08:28:23.920Z,1011.51
2023-01-10T08:29:24.025Z,1011.51
2023-01-10T08:30:23.973Z,1011.49
2023-01-10T08:31:23.923Z,1011.51
2023-01-10T08:32:24.261Z,1011.53
2023-01-10T08:33:23.900Z,1011.56
2023-01-10T08:34:23.907Z,1011.59
2023-01-10T08:35:23.840Z,1011.61
2023-01-10T08:36:23.886Z,1011.62
2023-01-10T08:37:23.824Z,1011.63
2023-01-10T08:38:23.814Z,1011.63
2023-01-10T08:39:24.085Z,1011.69
2023-01-10T08:40:23.828Z,1011.66
2023-01-10T08:41:23.835Z,1011.73
2023-01-10T08:42:23.791Z,1011.73
2023-01-10T08:43:23.885Z,1011.75
2023-01-10T08:44:23.801Z,1011.77
2023-01-10T08:45:23.854Z,1011.74
2023-01-10T08:46:23.795Z,1011.78
2023-01-10T08:47:23.736Z,1011.78
2023-01-10T08:48:23.749Z,1011.80
2023-01-10T08:49:23.749Z,1011.79
2023-01-10T08:50:23.710Z,1011.78
2023-01-10T08:51:23.738Z,1011.79
2023-01-10T08:52:23.665Z,1011.78
2023-01-10T08:53:23.652Z,1011.80
2023-01-10T08:54:23.651Z,1011.77
2023-01-10T08:55:23.635Z,1011.79
2023-01-10T08:56:23.653Z,1011.80
2023-01-10T08:57:23.649Z,1011.81
2023-01-10T08:58:23.604Z,1011.82
2023-01-10T08:59:23.591Z,1011.83
2023-01-10T09:00:23.608Z,1011.84
2023-01-10T09:01:23.686Z,1011.84
2023-01-10T09:02:23.809Z,1011.83
2023-01-10T09:03:23.566Z,1011.87
2023-01-10T09:04:23.648Z,1011.87
2023-01-10T09:05:28.013Z,1011.89
2023-01-10T09:06:23.545Z,1011.88
2023-01-10T09:07:23.512Z,1011.87
2023-01-10T09:08:23.561Z,1011.86
2023-01-10T09:09:23.519Z,1011.87
2023-01-10T09:10:23.514Z,1011.90
2023-01-10T09:11:23.474Z,1011.93
2023-01-10T09:12:23.522Z,1011.94
2023-01-10T09:13:23.473Z,1011.93
2023-01-10T09:14:23.452Z,1011.93
2023-01-10T09:15:23.433Z,1011.93
2023-01-10T09:16:23.543Z,1011.96
2023-01-10T09:17:23.408Z,1011.95
2023-01-10T09:18:23.415Z,1011.95
2023-01-10T09:19:23.394Z,1011.99
2023-01-10T09:20:23.430Z,1012.00
2023-01-10T09:21:23.378Z,1012.03
2023-01-10T09:22:23.440Z,1012.06
2023-01-10T09:23:23.349Z,1012.08
2023-01-10T09:24:23.341Z,1012.07
2023-01-10T09:25:23.329Z,1012.08
2023-01-10T09:26:23.313Z,1012.08
2023-01-10T09:27:23.320Z,1012.09
2023-01-10T09:28:23.309Z,1012.08
2023-01-10T09:29:23.436Z,1012.11
2023-01-10T09:30:23.267Z,1012.13
2023-01-10T09:31:23.312Z,1012.13
2023-01-10T09:32:23.462Z,1012.11
2023-01-10T09:33:23.304Z,1012.09
2023-01-10T09:34:23.239Z,1012.05
2023-01-10T09:35:23.236Z,1012.06
2023-01-10T09:36:23.214Z,1012.08
2023-01-10T09:37:23.220Z,1012.11
2023-01-10T09:38:23.196Z,1012.14
2023-01-10T09:39:23.196Z,1012.16
2023-01-10T09:40:23.226Z,1012.16
2023-01-10T09:41:23.183Z,1012.16
2023-01-10T09:42:23.175Z,1012.18
2023-01-10T09:43:23.170Z,1012.21
2023-01-10T09:44:23.125Z,1012.24
2023-01-10T09:45:23.124Z,1012.24
2023-01-10T09:46:23.184Z,1012.29
2023-01-10T09:47:23.463Z,1012.25
2023-01-10T09:48:23.088Z,1012.24
2023-01-10T09:49:23.171Z,1012.22
2023-01-10T09:50:23.139Z,1012.23
2023-01-10T09:51:23.140Z,1012.25
2023-01-10T09:52:23.086Z,1012.27
2023-01-10T09:53:23.053Z,1012.27
2023-01-10T09:54:23.036Z,1012.28
2023-01-10T09:55:23.096Z,1012.31
2023-01-10T09:56:23.033Z,1012.32
2023-01-10T09:57:22.994Z,1012.32
2023-01-10T09:58:23.004Z,1012.32
2023-01-10T09:59:23.001Z,1012.35
2023-01-10T10:00:22.967Z,1012.36
2023-01-10T10:01:23.001Z,1012.37
2023-01-10T10:02:22.953Z,1012.39
2023-01-10T10:03:22.992Z,1012.35
2023-01-10T10:04:23.081Z,1012.34
2023-01-10T10:05:22.913Z,1012.36
2023-01-10T10:06:22.919Z,1012.35
2023-01-10T10:07:22.928Z,1012.35
2023-01-10T10:08:22.890Z,1012.40
2023-01-10T10:09:22.907Z,1012.40
2023-01-10T10:10:22.861Z,1012.39
2023-01-10T10:11:22.960Z,1012.43
2023-01-10T10:12:23.026Z,1012.42
2023-01-10T10:13:27.577Z,1012.46
2023-01-10T10:14:22.823Z,1012.46
2023-01-10T10:15:22.879Z,1012.43
2023-01-10T10:16:22.858Z,1012.43
2023-01-10T10:17:22.795Z,1012.44
2023-01-10T10:18:22.801Z,1012.45
2023-01-10T10:19:22.829Z,1012.45
2023-01-10T10:20:22.781Z,1012.47
2023-01-10T10:21:22.831Z,1012.48
2023-01-10T10:22:22.749Z,1012.49
2023-01-10T10:23:22.751Z,1012.50
2023-01-10T10:24:22.749Z,1012.50
2023-01-10T10:25:22.826Z,1012.50
2023-01-10T10:26:22.704Z,1012.50
2023-01-10T10:27:22.735Z,1012.50
2023-01-10T10:28:22.711Z,1012.53
2023-01-10T10:29:22.680Z,1012.53
2023-01-10T10:30:22.708Z,1012.52
2023-01-10T10:31:22.712Z,1012.52
2023-01-10T10:32:22.657Z,1012.53
2023-01-10T10:33:22.657Z,1012.56
2023-01-10T10:34:22.626Z,1012.58
2023-01-10T10:35:22.606Z,1012.59
2023-01-10T10:36:22.582Z,1012.58
2023-01-10T10:37:22.586Z,1012.55
2023-01-10T10:38:22.569Z,1012.56
2023-01-10T10:39:22.582Z,1012.54
2023-01-10T10:40:22.567Z,1012.54
2023-01-10T10:41:22.558Z,1012.55
2023-01-10T10:42:22.530Z,1012.53
2023-01-10T10:43:22.562Z,1012.56
2023-01-10T10:44:22.529Z,1012.56
2023-01-10T10:45:24.593Z,1012.54
2023-01-10T10:46:22.544Z,1012.50
2023-01-10T10:47:22.563Z,1012.51
2023-01-10T10:48:22.482Z,1012.49
2023-01-10T10:49:22.472Z,1012.47
2023-01-10T10:50:22.447Z,1012.48
2023-01-10T10:51:22.456Z,1012.46
2023-01-10T10:52:22.416Z,1012.46
2023-01-10T10:53:22.417Z,1012.45
2023-01-10T10:54:22.402Z,1012.44
2023-01-10T10:55:22.476Z,1012.46
2023-01-10T10:56:22.396Z,1012.44
2023-01-10T10:57:22.375Z,1012.46
2023-01-10T10:58:22.353Z,1012.43
2023-01-10T10:59:22.364Z,1012.42
2023-01-10T11:00:22.459Z,1012.39
2023-01-10T11:01:24.677Z,1012.37
2023-01-10T11:02:22.313Z,1012.36
2023-01-10T11:03:22.303Z,1012.33
2023-01-10T11:04:22.383Z,1012.31
2023-01-10T11:05:22.365Z,1012.27
2023-01-10T11:06:22.288Z,1012.23
2023-01-10T11:07:22.411Z,1012.22
2023-01-10T11:08:22.304Z,1012.23
2023-01-10T11:09:22.243Z,1012.23
2023-01-10T11:10:22.245Z,1012.25
2023-01-10T11:11:22.240Z,1012.24
2023-01-10T11:12:22.219Z,1012.25
2023-01-10T11:13:22.248Z,1012.27
2023-01-10T11:14:22.176Z,1012.25
2023-01-10T11:15:22.176Z,1012.26
2023-01-10T11:16:22.213Z,1012.28
2023-01-10T11:17:22.168Z,1012.28
2023-01-10T11:18:22.140Z,1012.26
2023-01-10T11:19:22.138Z,1012.26
2023-01-10T11:20:22.136Z,1012.28
2023-01-10T11:21:24.489Z,1012.28
2023-01-10T11:22:22.102Z,1012.29
2023-01-10T11:23:22.112Z,1012.29
2023-01-10T11:24:22.099Z,1012.32
2023-01-10T11:25:22.095Z,1012.31
2023-01-10T11:26:22.076Z,1012.34
2023-01-10T11:27:22.064Z,1012.35
2023-01-10T11:28:22.059Z,1012.37
2023-01-10T11:29:22.030Z,1012.39
2023-01-10T11:30:22.052Z,1012.41
2023-01-10T11:31:22.049Z,1012.42
2023-01-10T11:32:22.013Z,1012.42
2023-01-10T11:33:21.980Z,1012.44
2023-01-10T11:34:22.011Z,1012.44
2023-01-10T11:35:22.018Z,1012.47
2023-01-10T11:36:21.959Z,1012.40
2023-01-10T11:37:21.955Z,1012.38
2023-01-10T11:38:21.939Z,1012.35
2023-01-10T11:39:21.931Z,1012.35
2023-01-10T11:40:21.973Z,1012.35
2023-01-10T11:41:21.930Z,1012.32
2023-01-10T11:42:21.893Z,1012.31
2023-01-10T11:43:21.886Z,1012.27
2023-01-10T11:44:21.881Z,1012.24
2023-01-10T11:45:21.896Z,1012.24
2023-01-10T11:46:22.008Z,1012.19
2023-01-10T11:47:21.853Z,1012.18
2023-01-10T11:48:34.197Z,1012.15
2023-01-10T11:49:21.838Z,1012.18
2023-01-10T11:50:21.816Z,1012.11
2023-01-10T11:51:21.830Z,1012.13
2023-01-10T11:52:21.807Z,1012.15
2023-01-10T11:53:21.784Z,1012.14
2023-01-10T11:54:21.769Z,1012.12
2023-01-10T11:55:21.762Z,1012.12
2023-01-10T11:56:21.773Z,1012.07
2023-01-10T11:57:21.734Z,1012.04
2023-01-10T11:58:21.736Z,1012.04
2023-01-10T11:59:21.717Z,1012.03
2023-01-10T12:00:21.716Z,1012.02
2023-01-10T12:01:21.767Z,1012.00
2023-01-10T12:02:21.799Z,1012.01
2023-01-10T12:03:21.688Z,1012.00
2023-01-10T12:04:21.675Z,1011.99
2023-01-10T12:05:21.799Z,1011.97